createdAt,value
2023-05-22T00:00:47.047Z,24.81
2023-05-22T00:01:47.063Z,24.81
2023-05-22T00:02:47.264Z,24.81
2023-05-22T00:03:47.102Z,24.82
2023-05-22T00:04:47.152Z,24.81
2023-05-22T00:05:47.158Z,24.82
2023-05-22T00:06:47.180Z,24.81
2023-05-22T00:07:47.194Z,24.81
2023-05-22T00:08:47.195Z,24.81
2023-05-22T00:09:47.237Z,24.81
2023-05-22T00:10:47.242Z,24.81
2023-05-22T00:11:47.256Z,24.80
2023-05-22T00:12:47.286Z,24.80
2023-05-22T00:13:47.275Z,24.80
2023-05-22T00:14:47.232Z,24.81
2023-05-22T00:15:47.213Z,24.80
2023-05-22T00:16:47.216Z,24.80
2023-05-22T00:17:47.197Z,24.81
2023-05-22T00:18:47.190Z,24.80
2023-05-22T00:19:47.124Z,24.80
2023-05-22T00:20:47.128Z,24.80
2023-05-22T00:21:47.081Z,24.80
2023-05-22T00:22:47.078Z,24.79
2023-05-22T00:23:47.054Z,24.79
2023-05-22T00:24:47.062Z,24.79
2023-05-22T00:25:47.040Z,24.79
2023-05-22T00:26:47.026Z,24.80
2023-05-22T00:27:47.056Z,24.80
2023-05-22T00:28:47.081Z,24.80
2023-05-22T00:29:47.095Z,24.80
2023-05-22T00:30:47.138Z,24.80
2023-05-22T00:31:47.143Z,24.80
2023-05-22T00:32:47.267Z,24.80
2023-05-22T00:33:47.220Z,24.80
2023-05-22T00:34:47.268Z,24.79
2023-05-22T00:35:47.238Z,24.79
2023-05-22T00:36:47.268Z,24.80
2023-05-22T00:37:47.261Z,24.80
2023-05-22T00:38:47.254Z,24.78
2023-05-22T00:39:47.289Z,24.79
2023-05-22T00:40:47.206Z,24.78
2023-05-22T00:41:47.209Z,24.78
2023-05-22T00:42:47.183Z,24.77
2023-05-22T00:43:47.187Z,24.78
2023-05-22T00:44:47.150Z,24.77
2023-05-22T00:45:47.134Z,24.77
2023-05-22T00:46:47.173Z,24.77
2023-05-22T00:47:47.133Z,24.77
2023-05-22T00:48:47.088Z,24.77
2023-05-22T00:49:47.069Z,24.76
2023-05-22T00:50:47.061Z,24.76
2023-05-22T00:51:47.047Z,24.76
2023-05-22T00:52:47.024Z,24.77
2023-05-22T00:53:47.010Z,24.77
2023-05-22T00:54:47.024Z,24.77
2023-05-22T00:55:47.032Z,24.76
2023-05-22T00:56:47.051Z,24.76
2023-05-22T00:57:47.059Z,24.76
2023-05-22T00:58:47.085Z,24.77
2023-05-22T00:59:47.082Z,24.74
2023-05-22T01:00:47.109Z,24.75
2023-05-22T01:01:47.179Z,24.76
2023-05-22T01:02:47.280Z,24.75
2023-05-22T01:03:47.281Z,24.75
2023-05-22T01:04:47.161Z,24.76
2023-05-22T01:05:47.185Z,24.75
2023-05-22T01:06:47.205Z,24.74
2023-05-22T01:07:47.243Z,24.74
2023-05-22T01:08:47.256Z,24.75
2023-05-22T01:09:47.282Z,24.75
2023-05-22T01:10:47.287Z,24.75
2023-05-22T01:11:47.330Z,24.76
2023-05-22T01:12:47.345Z,24.75
2023-05-22T01:13:47.374Z,24.76
2023-05-22T01:14:47.409Z,24.76
2023-05-22T01:15:47.419Z,24.76
2023-05-22T01:16:47.496Z,24.76
2023-05-22T01:17:47.499Z,24.76
2023-05-22T01:18:47.544Z,24.76
2023-05-22T01:19:47.691Z,24.75
2023-05-22T01:20:48.738Z,24.75
2023-05-22T01:21:47.572Z,24.74
2023-05-22T01:22:47.610Z,24.74
2023-05-22T01:23:47.644Z,24.75
2023-05-22T01:24:47.657Z,24.74
2023-05-22T01:25:47.660Z,24.74
2023-05-22T01:26:47.685Z,24.74
2023-05-22T01:27:47.718Z,24.74
2023-05-22T01:28:47.747Z,24.73
2023-05-22T01:29:47.750Z,24.73
2023-05-22T01:30:47.782Z,24.73
2023-05-22T01:31:47.836Z,24.72
2023-05-22T01:32:47.925Z,24.73
2023-05-22T01:33:47.976Z,24.73
2023-05-22T01:34:47.891Z,24.73
2023-05-22T01:35:47.918Z,24.72
2023-05-22T01:36:47.932Z,24.72
2023-05-22T01:37:47.971Z,24.72
2023-05-22T01:38:47.997Z,24.72
2023-05-22T01:39:48.028Z,24.72
2023-05-22T01:40:48.056Z,24.72
2023-05-22T01:41:48.072Z,24.71
2023-05-22T01:42:48.106Z,24.72
2023-05-22T01:43:48.133Z,24.72
2023-05-22T01:44:48.150Z,24.72
2023-05-22T01:45:48.262Z,24.72
2023-05-22T01:46:48.223Z,24.72
2023-05-22T01:47:48.281Z,24.73
2023-05-22T01:48:48.257Z,24.72
2023-05-22T01:49:48.306Z,24.72
2023-05-22T01:50:48.312Z,24.71
2023-05-22T01:51:48.345Z,24.72
2023-05-22T01:52:48.367Z,24.73
2023-05-22T01:53:48.393Z,24.72
2023-05-22T01:54:48.425Z,24.72
2023-05-22T01:55:48.436Z,24.71
2023-05-22T01:56:48.468Z,24.70
2023-05-22T01:57:48.508Z,24.71
2023-05-22T01:58:48.545Z,24.71
2023-05-22T01:59:48.656Z,24.70
2023-05-22T02:00:48.590Z,24.70
2023-05-22T02:01:48.699Z,24.69
2023-05-22T02:02:48.792Z,24.70
2023-05-22T02:03:48.694Z,24.70
2023-05-22T02:04:48.711Z,24.69
2023-05-22T02:05:48.731Z,24.70
2023-05-22T02:06:48.753Z,24.70
2023-05-22T02:07:48.792Z,24.70
2023-05-22T02:08:48.833Z,24.70
2023-05-22T02:09:48.845Z,24.70
2023-05-22T02:10:48.875Z,24.70
2023-05-22T02:11:48.919Z,24.69
2023-05-22T02:12:48.994Z,24.70
2023-05-22T02:13:48.968Z,24.69
2023-05-22T02:14:48.999Z,24.70
2023-05-22T02:15:49.103Z,24.69
2023-05-22T02:16:49.042Z,24.69
2023-05-22T02:17:49.096Z,24.69
2023-05-22T02:18:49.189Z,24.69
2023-05-22T02:19:49.145Z,24.68
2023-05-22T02:20:49.162Z,24.68
2023-05-22T02:21:49.186Z,24.68
2023-05-22T02:22:49.232Z,24.68
2023-05-22T02:23:49.265Z,24.67
2023-05-22T02:24:49.297Z,24.68
2023-05-22T02:25:49.317Z,24.68
2023-05-22T02:26:49.355Z,24.68
2023-05-22T02:27:49.393Z,24.68
2023-05-22T02:28:49.506Z,24.68
2023-05-22T02:29:49.472Z,24.68
2023-05-22T02:30:49.535Z,24.68
2023-05-22T02:31:49.560Z,24.68
2023-05-22T02:32:49.593Z,24.67
2023-05-22T02:33:49.600Z,24.68
2023-05-22T02:34:49.643Z,24.67
2023-05-22T02:35:49.714Z,24.68
2023-05-22T02:36:49.690Z,24.68
2023-05-22T02:37:49.717Z,24.68
2023-05-22T02:38:49.738Z,24.67
2023-05-22T02:39:49.784Z,24.68
2023-05-22T02:40:49.810Z,24.68
2023-05-22T02:41:49.826Z,24.68
2023-05-22T02:42:49.873Z,24.68
2023-05-22T02:43:49.871Z,24.68
2023-05-22T02:44:49.890Z,24.67
2023-05-22T02:45:49.905Z,24.67
2023-05-22T02:46:49.954Z,24.67
2023-05-22T02:47:49.982Z,24.65
2023-05-22T02:48:49.981Z,24.65
2023-05-22T02:49:50.013Z,24.63
2023-05-22T02:50:50.024Z,24.61
2023-05-22T02:51:50.056Z,24.60
2023-05-22T02:52:50.069Z,24.58
2023-05-22T02:53:50.092Z,24.56
2023-05-22T02:54:50.112Z,24.53
2023-05-22T02:55:50.153Z,24.50
2023-05-22T02:56:50.169Z,24.47
2023-05-22T02:57:50.211Z,24.44
2023-05-22T02:58:50.249Z,24.41
2023-05-22T02:59:50.328Z,24.38
2023-05-22T03:00:50.362Z,24.35
2023-05-22T03:01:50.436Z,24.32
2023-05-22T03:02:50.541Z,24.29
2023-05-22T03:03:50.605Z,24.26
2023-05-22T03:04:50.518Z,24.22
2023-05-22T03:05:50.563Z,24.20
2023-05-22T03:06:50.599Z,24.19
2023-05-22T03:07:50.636Z,24.16
2023-05-22T03:08:50.609Z,24.14
2023-05-22T03:09:50.622Z,24.12
2023-05-22T03:10:50.616Z,24.08
2023-05-22T03:11:50.603Z,24.08
2023-05-22T03:12:50.604Z,24.06
2023-05-22T03:13:50.611Z,24.05
2023-05-22T03:14:50.628Z,24.04
2023-05-22T03:15:50.691Z,24.01
2023-05-22T03:16:50.669Z,24.00
2023-05-22T03:17:50.650Z,23.97
2023-05-22T03:18:50.657Z,23.96
2023-05-22T03:19:50.674Z,23.94
2023-05-22T03:20:50.647Z,23.93
2023-05-22T03:21:50.684Z,23.91
2023-05-22T03:22:50.670Z,23.90
2023-05-22T03:23:50.666Z,23.89
2023-05-22T03:24:50.693Z,23.88
2023-05-22T03:25:50.711Z,23.87
2023-05-22T03:26:50.701Z,23.84
2023-05-22T03:27:50.731Z,23.83
2023-05-22T03:28:50.808Z,23.82
2023-05-22T03:29:50.757Z,23.80
2023-05-22T03:30:50.790Z,23.79
2023-05-22T03:31:50.802Z,23.79
2023-05-22T03:32:50.865Z,23.78
2023-05-22T03:33:50.880Z,23.77
2023-05-22T03:34:50.878Z,23.78
2023-05-22T03:35:50.920Z,23.76
2023-05-22T03:36:50.939Z,23.76
2023-05-22T03:37:50.958Z,23.76
2023-05-22T03:38:50.978Z,23.73
2023-05-22T03:39:51.017Z,23.72
2023-05-22T03:40:51.035Z,23.70
2023-05-22T03:41:51.072Z,23.70
2023-05-22T03:42:51.113Z,23.70
2023-05-22T03:43:51.145Z,23.69
2023-05-22T03:44:51.186Z,23.68
2023-05-22T03:45:51.262Z,23.67
2023-05-22T03:46:51.263Z,23.67
2023-05-22T03:47:51.348Z,23.66
2023-05-22T03:48:51.345Z,23.63
2023-05-22T03:49:51.363Z,23.62
2023-05-22T03:50:51.403Z,23.62
2023-05-22T03:51:51.455Z,23.60
2023-05-22T03:52:51.483Z,23.59
2023-05-22T03:53:51.534Z,23.57
2023-05-22T03:54:51.562Z,23.56
2023-05-22T03:55:51.604Z,23.56
2023-05-22T03:56:51.652Z,23.56
2023-05-22T03:57:51.715Z,23.56
2023-05-22T03:58:51.731Z,23.55
2023-05-22T03:59:51.757Z,23.54
2023-05-22T04:00:51.832Z,23.53
2023-05-22T04:01:51.849Z,23.51
2023-05-22T04:02:51.938Z,23.51
2023-05-22T04:03:51.888Z,23.51
2023-05-22T04:04:51.948Z,23.50
2023-05-22T04:05:51.878Z,23.50
2023-05-22T04:06:51.858Z,23.50
2023-05-22T04:07:51.864Z,23.48
2023-05-22T04:08:51.856Z,23.47
2023-05-22T04:09:51.844Z,23.46
2023-05-22T04:10:51.834Z,23.46
2023-05-22T04:11:51.831Z,23.46
2023-05-22T04:12:51.835Z,23.46
2023-05-22T04:13:51.813Z,23.47
2023-05-22T04:14:51.816Z,23.46
2023-05-22T04:15:51.939Z,23.45
2023-05-22T04:16:51.903Z,23.45
2023-05-22T04:17:52.017Z,23.43
2023-05-22T04:18:52.035Z,23.43
2023-05-22T04:19:51.999Z,23.42
2023-05-22T04:20:52.001Z,23.42
2023-05-22T04:21:51.964Z,23.41
2023-05-22T04:22:51.986Z,23.41
2023-05-22T04:23:51.947Z,23.40
2023-05-22T04:24:51.954Z,23.39
2023-05-22T04:25:51.964Z,23.38
2023-05-22T04:26:51.940Z,23.38
2023-05-22T04:27:51.944Z,23.38
2023-05-22T04:28:51.941Z,23.38
2023-05-22T04:29:51.969Z,23.38
2023-05-22T04:30:52.046Z,23.38
2023-05-22T04:31:52.082Z,23.38
2023-05-22T04:32:52.168Z,23.38
2023-05-22T04:33:52.179Z,23.37
2023-05-22T04:34:52.230Z,23.36
2023-05-22T04:35:52.290Z,23.36
2023-05-22T04:36:52.341Z,23.35
2023-05-22T04:37:52.389Z,23.36
2023-05-22T04:38:52.455Z,23.35
2023-05-22T04:39:52.432Z,23.34
2023-05-22T04:40:52.432Z,23.34
2023-05-22T04:41:52.440Z,23.33
2023-05-22T04:42:52.427Z,23.32
2023-05-22T04:43:52.409Z,23.31
2023-05-22T04:44:52.396Z,23.31
2023-05-22T04:45:52.409Z,23.31
2023-05-22T04:46:52.487Z,23.30
2023-05-22T04:47:52.425Z,23.28
2023-05-22T04:48:52.390Z,23.28
2023-05-22T04:49:52.386Z,23.30
2023-05-22T04:50:52.402Z,23.28
2023-05-22T04:51:52.439Z,23.28
2023-05-22T04:52:52.495Z,23.29
2023-05-22T04:53:52.451Z,23.31
2023-05-22T04:54:52.459Z,23.33
2023-05-22T04:55:52.435Z,23.36
2023-05-22T04:56:52.430Z,23.38
2023-05-22T04:57:52.451Z,23.40
2023-05-22T04:58:52.427Z,23.42
2023-05-22T04:59:52.432Z,23.44
2023-05-22T05:00:52.453Z,23.45
2023-05-22T05:01:52.423Z,23.46
2023-05-22T05:02:52.454Z,23.47
2023-05-22T05:03:52.454Z,23.49
2023-05-22T05:04:52.537Z,23.51
2023-05-22T05:05:52.387Z,23.52
2023-05-22T05:06:52.423Z,23.53
2023-05-22T05:07:52.408Z,23.55
2023-05-22T05:08:52.387Z,23.57
2023-05-22T05:09:52.380Z,23.58
2023-05-22T05:10:52.383Z,23.60
2023-05-22T05:11:52.354Z,23.61
2023-05-22T05:12:52.360Z,23.62
2023-05-22T05:13:52.338Z,23.64
2023-05-22T05:14:52.354Z,23.65
2023-05-22T05:15:52.327Z,23.66
2023-05-22T05:16:52.368Z,23.68
2023-05-22T05:17:52.368Z,23.69
2023-05-22T05:18:52.374Z,23.70
2023-05-22T05:19:52.337Z,23.72
2023-05-22T05:20:52.371Z,23.72
2023-05-22T05:21:52.380Z,23.72
2023-05-22T05:22:52.399Z,23.72
2023-05-22T05:23:52.430Z,23.74
2023-05-22T05:24:52.442Z,23.75
2023-05-22T05:25:52.454Z,23.76
2023-05-22T05:26:52.484Z,23.77
2023-05-22T05:27:52.502Z,23.78
2023-05-22T05:28:52.529Z,23.79
2023-05-22T05:29:52.552Z,23.80
2023-05-22T05:30:52.585Z,23.80
2023-05-22T05:31:52.635Z,23.80
2023-05-22T05:32:52.670Z,23.79
2023-05-22T05:33:52.649Z,23.81
2023-05-22T05:34:52.652Z,23.84
2023-05-22T05:35:52.692Z,23.84
2023-05-22T05:36:52.671Z,23.86
2023-05-22T05:37:52.667Z,23.81
2023-05-22T05:38:52.638Z,23.60
2023-05-22T05:39:52.610Z,23.19
2023-05-22T05:40:52.682Z,23.13
2023-05-22T05:41:52.585Z,23.05
2023-05-22T05:42:52.629Z,23.04
2023-05-22T05:43:52.593Z,23.06
2023-05-22T05:44:52.609Z,23.11
2023-05-22T05:45:52.646Z,23.16
2023-05-22T05:46:52.616Z,23.19
2023-05-22T05:47:52.640Z,23.25
2023-05-22T05:48:52.617Z,23.32
2023-05-22T05:49:52.650Z,23.38
2023-05-22T05:50:52.689Z,23.45
2023-05-22T05:51:52.726Z,23.51
2023-05-22T05:52:52.830Z,23.58
2023-05-22T05:53:52.834Z,23.64
2023-05-22T05:54:52.845Z,23.71
2023-05-22T05:55:52.853Z,23.78
2023-05-22T05:56:52.915Z,23.84
2023-05-22T05:57:52.894Z,23.89
2023-05-22T05:58:52.865Z,23.95
2023-05-22T05:59:52.871Z,24.00
2023-05-22T06:00:52.911Z,24.03
2023-05-22T06:01:52.914Z,24.08
2023-05-22T06:02:53.005Z,24.13
2023-05-22T06:03:53.246Z,24.16
2023-05-22T06:04:53.030Z,24.20
2023-05-22T06:05:53.106Z,24.25
2023-05-22T06:06:53.124Z,24.28
2023-05-22T06:07:53.165Z,24.33
2023-05-22T06:08:53.203Z,24.35
2023-05-22T06:09:53.308Z,24.39
2023-05-22T06:10:53.297Z,24.40
2023-05-22T06:11:53.360Z,24.44
2023-05-22T06:12:53.412Z,24.47
2023-05-22T06:13:53.439Z,24.51
2023-05-22T06:14:53.453Z,24.54
2023-05-22T06:15:53.504Z,24.58
2023-05-22T06:16:53.560Z,24.61
2023-05-22T06:17:53.638Z,24.65
2023-05-22T06:18:53.614Z,24.67
2023-05-22T06:19:53.577Z,24.72
2023-05-22T06:20:53.600Z,24.75
2023-05-22T06:21:53.599Z,24.79
2023-05-22T06:22:53.677Z,24.82
2023-05-22T06:23:53.653Z,24.85
2023-05-22T06:24:53.645Z,24.89
2023-05-22T06:25:53.654Z,24.92
2023-05-22T06:26:53.671Z,24.96
2023-05-22T06:27:53.686Z,25.00
2023-05-22T06:28:53.679Z,25.03
2023-05-22T06:29:53.683Z,25.06
2023-05-22T06:30:53.684Z,25.05
2023-05-22T06:31:53.674Z,25.01
2023-05-22T06:32:53.794Z,25.00
2023-05-22T06:33:53.687Z,25.01
2023-05-22T06:34:53.612Z,25.01
2023-05-22T06:35:53.588Z,24.99
2023-05-22T06:36:53.594Z,25.00
2023-05-22T06:37:53.569Z,25.00
2023-05-22T06:38:53.570Z,25.00
2023-05-22T06:39:53.554Z,25.01
2023-05-22T06:40:53.559Z,25.01
2023-05-22T06:41:53.660Z,24.99
2023-05-22T06:42:53.545Z,24.92
2023-05-22T06:43:53.505Z,24.76
2023-05-22T06:44:53.497Z,24.69
2023-05-22T06:45:53.626Z,24.70
2023-05-22T06:46:53.467Z,24.72
2023-05-22T06:47:53.471Z,24.69
2023-05-22T06:48:53.452Z,24.71
2023-05-22T06:49:53.435Z,24.71
2023-05-22T06:50:53.572Z,24.73
2023-05-22T06:51:53.481Z,24.73
2023-05-22T06:52:53.495Z,24.70
2023-05-22T06:53:53.599Z,24.68
2023-05-22T06:54:53.540Z,24.71
2023-05-22T06:55:53.579Z,24.71
2023-05-22T06:56:53.590Z,24.69
2023-05-22T06:57:53.622Z,24.71
2023-05-22T06:58:53.640Z,24.73
2023-05-22T06:59:53.637Z,24.72
2023-05-22T07:00:53.648Z,24.65
2023-05-22T07:01:53.640Z,24.52
2023-05-22T07:02:53.748Z,24.46
2023-05-22T07:03:53.683Z,24.49
2023-05-22T07:04:53.725Z,24.48
2023-05-22T07:05:53.664Z,24.52
2023-05-22T07:06:53.648Z,24.51
2023-05-22T07:07:53.622Z,24.55
2023-05-22T07:08:53.615Z,24.53
2023-05-22T07:09:53.606Z,24.57
2023-05-22T07:10:53.568Z,24.61
2023-05-22T07:11:53.561Z,24.66
2023-05-22T07:12:53.555Z,24.51
2023-05-22T07:13:54.169Z,24.39
2023-05-22T07:14:53.497Z,24.40
2023-05-22T07:15:53.497Z,24.44
2023-05-22T07:16:53.629Z,24.38
2023-05-22T07:17:53.654Z,24.28
2023-05-22T07:18:53.472Z,24.29
2023-05-22T07:19:53.439Z,24.31
2023-05-22T07:20:53.612Z,24.35
2023-05-22T07:21:53.406Z,24.42
2023-05-22T07:22:53.444Z,24.50
2023-05-22T07:23:53.354Z,24.57
2023-05-22T07:24:53.355Z,24.64
2023-05-22T07:25:53.354Z,24.71
2023-05-22T07:26:53.489Z,24.77
2023-05-22T07:27:53.326Z,24.83
2023-05-22T07:28:53.291Z,24.90
2023-05-22T07:29:53.275Z,24.94
2023-05-22T07:30:53.250Z,24.98
2023-05-22T07:31:53.259Z,25.04
2023-05-22T07:32:53.286Z,25.09
2023-05-22T07:33:53.292Z,25.13
2023-05-22T07:34:53.339Z,25.18
2023-05-22T07:35:53.340Z,25.22
2023-05-22T07:36:53.334Z,25.26
2023-05-22T07:37:53.698Z,25.29
2023-05-22T07:38:53.549Z,25.32
2023-05-22T07:39:53.545Z,25.28
2023-05-22T07:40:53.516Z,25.31
2023-05-22T07:41:54.608Z,25.33
2023-05-22T07:42:53.548Z,25.35
2023-05-22T07:43:53.577Z,25.38
2023-05-22T07:44:53.597Z,25.40
2023-05-22T07:45:53.509Z,25.42
2023-05-22T07:46:53.424Z,25.45
2023-05-22T07:47:55.659Z,25.47
2023-05-22T07:48:53.456Z,25.50
2023-05-22T07:49:53.367Z,25.53
2023-05-22T07:50:53.342Z,25.55
2023-05-22T07:51:53.314Z,25.59
2023-05-22T07:52:53.324Z,25.60
2023-05-22T07:53:53.436Z,25.63
2023-05-22T07:54:53.240Z,25.65
2023-05-22T07:55:53.222Z,25.68
2023-05-22T07:56:53.266Z,25.70
2023-05-22T07:57:53.206Z,25.73
2023-05-22T07:58:53.137Z,25.74
2023-05-22T07:59:53.137Z,25.76
2023-05-22T08:00:53.113Z,25.78
2023-05-22T08:01:53.073Z,25.79
2023-05-22T08:02:53.278Z,25.82
2023-05-22T08:03:53.324Z,25.85
2023-05-22T08:04:53.218Z,25.87
2023-05-22T08:05:53.196Z,25.88
2023-05-22T08:06:53.206Z,25.91
2023-05-22T08:07:53.274Z,25.92
2023-05-22T08:08:53.252Z,25.94
2023-05-22T08:09:53.300Z,25.96
2023-05-22T08:11:04.026Z,25.97
2023-05-22T08:11:54.232Z,25.96
2023-05-22T08:12:53.228Z,25.96
2023-05-22T08:13:53.193Z,25.98
2023-05-22T08:14:53.184Z,25.98
2023-05-22T08:16:00.424Z,25.98
2023-05-22T08:16:54.194Z,25.96
2023-05-22T08:17:53.205Z,25.97
2023-05-22T08:18:53.118Z,25.98
2023-05-22T08:19:53.118Z,25.99
2023-05-22T08:20:54.888Z,25.98
2023-05-22T08:21:53.025Z,25.99
2023-05-22T08:22:53.008Z,25.98
2023-05-22T08:23:52.981Z,25.98
2023-05-22T08:24:52.953Z,25.98
2023-05-22T08:25:52.930Z,25.98
2023-05-22T08:26:52.933Z,25.96
2023-05-22T08:27:52.912Z,25.96
2023-05-22T08:28:52.900Z,25.95
2023-05-22T08:29:52.845Z,25.94
2023-05-22T08:30:52.825Z,25.94
2023-05-22T08:31:52.874Z,25.94
2023-05-22T08:32:52.837Z,25.92
2023-05-22T08:33:52.775Z,25.91
2023-05-22T08:34:52.792Z,25.83
2023-05-22T08:35:52.732Z,25.79
2023-05-22T08:36:52.980Z,25.74
2023-05-22T08:37:52.790Z,25.69
2023-05-22T08:38:52.840Z,25.70
2023-05-22T08:39:52.888Z,25.71
2023-05-22T08:40:52.858Z,25.70
2023-05-22T08:41:52.835Z,25.71
2023-05-22T08:42:52.804Z,25.73
2023-05-22T08:43:52.785Z,25.73
2023-05-22T08:44:52.755Z,25.74
2023-05-22T08:45:52.737Z,25.73
2023-05-22T08:46:52.739Z,25.74
2023-05-22T08:47:52.866Z,25.75
2023-05-22T08:48:52.667Z,25.71
2023-05-22T08:49:52.704Z,25.71
2023-05-22T08:50:52.746Z,25.74
2023-05-22T08:51:52.902Z,25.74
2023-05-22T08:52:52.815Z,25.75
2023-05-22T08:53:52.834Z,25.74
2023-05-22T08:54:52.882Z,25.77
2023-05-22T08:55:52.916Z,25.79
2023-05-22T08:56:56.879Z,25.80
2023-05-22T08:57:52.985Z,25.83
2023-05-22T08:58:52.927Z,25.88
2023-05-22T08:59:53.085Z,25.91
2023-05-22T09:00:52.932Z,25.93
2023-05-22T09:01:52.859Z,25.95
2023-05-22T09:02:53.077Z,25.96
2023-05-22T09:03:52.804Z,25.98
2023-05-22T09:04:52.774Z,25.95
2023-05-22T09:05:52.817Z,25.97
2023-05-22T09:06:52.742Z,26.01
2023-05-22T09:07:52.721Z,26.03
2023-05-22T09:08:52.682Z,26.05
2023-05-22T09:09:52.640Z,26.08
2023-05-22T09:10:52.645Z,26.10
2023-05-22T09:11:52.609Z,26.12
2023-05-22T09:12:52.555Z,26.13
2023-05-22T09:13:52.521Z,26.14
2023-05-22T09:14:53.447Z,26.14
2023-05-22T09:15:52.470Z,26.16
2023-05-22T09:16:52.476Z,26.17
2023-05-22T09:17:52.485Z,26.19
2023-05-22T09:18:52.389Z,26.20
2023-05-22T09:19:52.330Z,26.15
2023-05-22T09:20:52.294Z,26.08
2023-05-22T09:21:52.302Z,26.05
2023-05-22T09:22:52.269Z,26.03
2023-05-22T09:23:52.273Z,25.89
2023-05-22T09:24:52.239Z,25.82
2023-05-22T09:25:52.232Z,25.68
2023-05-22T09:26:52.199Z,25.57
2023-05-22T09:27:52.193Z,25.36
2023-05-22T09:28:52.173Z,25.31
2023-05-22T09:29:52.193Z,25.28
2023-05-22T09:30:52.181Z,25.17
2023-05-22T09:31:52.234Z,25.12
2023-05-22T09:32:52.242Z,25.02
2023-05-22T09:33:52.145Z,24.99
2023-05-22T09:34:52.154Z,24.95
2023-05-22T09:35:52.148Z,24.95
2023-05-22T09:36:52.131Z,24.91
2023-05-22T09:37:52.138Z,24.86
2023-05-22T09:38:52.128Z,24.87
2023-05-22T09:39:52.165Z,24.85
2023-05-22T09:40:52.154Z,24.84
2023-05-22T09:41:52.163Z,24.86
2023-05-22T09:42:52.109Z,24.88
2023-05-22T09:43:52.105Z,24.87
2023-05-22T09:44:52.158Z,24.87
2023-05-22T09:45:52.134Z,24.87
2023-05-22T09:46:52.173Z,24.86
2023-05-22T09:47:52.169Z,24.92
2023-05-22T09:48:52.051Z,24.99
2023-05-22T09:49:52.036Z,24.94
2023-05-22T09:50:52.043Z,24.96
2023-05-22T09:51:52.004Z,24.83
2023-05-22T09:52:52.032Z,24.81
2023-05-22T09:53:51.998Z,24.77
2023-05-22T09:54:52.001Z,24.79
2023-05-22T09:55:52.093Z,24.78
2023-05-22T09:56:52.014Z,24.78
2023-05-22T09:57:51.994Z,24.78
2023-05-22T09:58:52.013Z,24.86
2023-05-22T09:59:51.973Z,24.89
2023-05-22T10:00:51.939Z,24.90
2023-05-22T10:01:51.987Z,24.95
2023-05-22T10:02:51.989Z,25.03
2023-05-22T10:03:51.920Z,25.09
2023-05-22T10:04:52.866Z,25.13
2023-05-22T10:05:51.865Z,25.16
2023-05-22T10:06:51.853Z,25.13
2023-05-22T10:07:51.856Z,25.15
2023-05-22T10:08:51.818Z,25.21
2023-05-22T10:09:51.839Z,25.21
2023-05-22T10:10:51.832Z,25.09
2023-05-22T10:11:51.880Z,24.89
2023-05-22T10:12:51.943Z,24.86
2023-05-22T10:13:51.923Z,24.92
2023-05-22T10:14:51.995Z,24.99
2023-05-22T10:15:52.046Z,25.08
2023-05-22T10:16:52.062Z,25.17
2023-05-22T10:17:52.066Z,25.19
2023-05-22T10:18:52.043Z,25.12
2023-05-22T10:19:52.028Z,24.87
2023-05-22T10:20:52.010Z,24.70
2023-05-22T10:21:52.076Z,24.69
2023-05-22T10:22:52.103Z,24.70
2023-05-22T10:23:52.005Z,24.73
2023-05-22T10:24:52.015Z,24.81
2023-05-22T10:25:51.993Z,24.86
2023-05-22T10:26:51.985Z,24.87
2023-05-22T10:27:52.006Z,24.87
2023-05-22T10:28:52.063Z,24.93
2023-05-22T10:29:51.962Z,24.83
2023-05-22T10:30:51.961Z,24.43
2023-05-22T10:31:51.963Z,24.23
2023-05-22T10:32:52.008Z,24.26
2023-05-22T10:33:52.008Z,24.25
2023-05-22T10:34:52.026Z,24.33
2023-05-22T10:35:52.109Z,24.43
2023-05-22T10:36:53.163Z,24.53
2023-05-22T10:37:52.197Z,24.65
2023-05-22T10:38:52.147Z,24.77
2023-05-22T10:39:52.190Z,24.90
2023-05-22T10:40:52.242Z,24.99
2023-05-22T10:41:52.273Z,25.06
2023-05-22T10:42:52.239Z,25.15
2023-05-22T10:43:52.346Z,25.24
2023-05-22T10:44:52.299Z,25.33
2023-05-22T10:45:52.285Z,25.38
2023-05-22T10:46:52.300Z,25.42
2023-05-22T10:47:52.487Z,25.51
2023-05-22T10:48:52.393Z,25.57
2023-05-22T10:49:52.419Z,25.65
2023-05-22T10:50:52.444Z,25.74
2023-05-22T10:51:52.446Z,25.80
2023-05-22T10:52:52.501Z,25.86
2023-05-22T10:53:52.459Z,25.93
2023-05-22T10:54:52.460Z,25.99
2023-05-22T10:55:52.437Z,26.05
2023-05-22T10:56:52.435Z,26.09
2023-05-22T10:57:52.442Z,26.11
2023-05-22T10:58:52.411Z,26.14
2023-05-22T10:59:52.489Z,26.18
2023-05-22T11:00:52.662Z,26.22
2023-05-22T11:01:52.597Z,26.28
2023-05-22T11:02:52.570Z,26.33
2023-05-22T11:03:52.558Z,26.37
2023-05-22T11:04:52.609Z,26.39
2023-05-22T11:05:52.501Z,26.42
2023-05-22T11:06:52.467Z,26.45
2023-05-22T11:07:52.455Z,26.47
2023-05-22T11:08:52.408Z,26.49
2023-05-22T11:09:52.407Z,26.54
2023-05-22T11:10:52.358Z,26.55
2023-05-22T11:11:52.335Z,26.56
2023-05-22T11:12:52.324Z,26.57
2023-05-22T11:13:52.360Z,26.59
2023-05-22T11:14:52.357Z,26.61
2023-05-22T11:15:52.221Z,26.62
2023-05-22T11:16:52.303Z,26.65
2023-05-22T11:17:52.229Z,26.71
2023-05-22T11:18:52.158Z,26.76
2023-05-22T11:19:52.123Z,26.79
2023-05-22T11:20:52.117Z,26.83
2023-05-22T11:21:52.069Z,26.86
2023-05-22T11:22:52.062Z,26.90
2023-05-22T11:23:51.997Z,26.92
2023-05-22T11:24:51.973Z,26.93
2023-05-22T11:25:52.010Z,26.93
2023-05-22T11:26:51.989Z,26.93
2023-05-22T11:27:52.026Z,26.95
2023-05-22T11:28:52.012Z,26.98
2023-05-22T11:29:51.975Z,27.02
2023-05-22T11:30:52.025Z,27.03
2023-05-22T11:31:51.980Z,27.04
2023-05-22T11:32:52.105Z,27.05
2023-05-22T11:33:51.985Z,27.07
2023-05-22T11:34:51.973Z,27.06
2023-05-22T11:35:51.963Z,27.07
2023-05-22T11:36:51.912Z,27.07
2023-05-22T11:37:51.958Z,27.07
2023-05-22T11:38:51.859Z,27.04
2023-05-22T11:39:51.837Z,27.01
2023-05-22T11:40:51.813Z,27.01
2023-05-22T11:41:51.812Z,26.99
2023-05-22T11:42:51.771Z,26.97
2023-05-22T11:43:51.748Z,26.98
2023-05-22T11:44:51.709Z,26.97
2023-05-22T11:45:51.680Z,26.95
2023-05-22T11:46:51.695Z,26.94
2023-05-22T11:47:51.667Z,26.93
2023-05-22T11:48:51.660Z,26.93
2023-05-22T11:49:51.550Z,26.92
2023-05-22T11:50:51.553Z,26.94
2023-05-22T11:51:51.505Z,26.94
2023-05-22T11:52:51.476Z,26.92
2023-05-22T11:53:51.442Z,26.92
2023-05-22T11:54:51.414Z,26.91
2023-05-22T11:55:51.384Z,26.90
2023-05-22T11:56:51.375Z,26.91
2023-05-22T11:57:51.360Z,26.92
2023-05-22T11:58:51.325Z,26.90
2023-05-22T11:59:51.277Z,26.89
2023-05-22T12:00:51.279Z,26.88
2023-05-22T12:01:51.201Z,26.87
2023-05-22T12:02:51.368Z,26.86
2023-05-22T12:03:51.320Z,26.86
2023-05-22T12:04:51.214Z,26.87
2023-05-22T12:05:51.113Z,26.88
2023-05-22T12:06:51.197Z,26.90
2023-05-22T12:07:51.028Z,26.91
2023-05-22T12:08:50.995Z,26.92
2023-05-22T12:09:50.959Z,26.92
2023-05-22T12:10:50.940Z,26.93
2023-05-22T12:11:50.901Z,26.95
2023-05-22T12:12:50.921Z,26.96
2023-05-22T12:13:50.845Z,26.97
2023-05-22T12:14:50.820Z,26.96
2023-05-22T12:15:50.790Z,26.96
2023-05-22T12:16:50.952Z,26.96
2023-05-22T12:17:50.787Z,26.95
2023-05-22T12:18:50.749Z,26.94
2023-05-22T12:19:50.697Z,26.93
2023-05-22T12:20:50.750Z,26.92
2023-05-22T12:21:50.683Z,26.91
2023-05-22T12:22:50.633Z,26.90
2023-05-22T12:23:50.610Z,26.90
2023-05-22T12:24:50.578Z,26.89
2023-05-22T12:25:50.580Z,26.92
2023-05-22T12:26:50.541Z,26.93
2023-05-22T12:27:50.527Z,26.95
2023-05-22T12:28:50.560Z,26.98
2023-05-22T12:29:50.571Z,27.01
2023-05-22T12:30:50.556Z,27.03
2023-05-22T12:31:50.600Z,27.02
2023-05-22T12:32:50.633Z,27.02
2023-05-22T12:33:50.585Z,27.03
2023-05-22T12:34:50.547Z,27.05
2023-05-22T12:35:50.560Z,27.06
2023-05-22T12:36:50.558Z,27.07
2023-05-22T12:37:50.587Z,27.08
2023-05-22T12:38:50.497Z,27.09
2023-05-22T12:39:50.468Z,27.10
2023-05-22T12:40:50.445Z,27.11
2023-05-22T12:41:50.424Z,27.11
2023-05-22T12:42:50.392Z,27.12
2023-05-22T12:43:50.368Z,27.14
2023-05-22T12:44:50.334Z,27.15
2023-05-22T12:45:50.303Z,27.16
2023-05-22T12:46:50.331Z,27.16
2023-05-22T12:47:50.258Z,27.17
2023-05-22T12:48:50.218Z,27.18
2023-05-22T12:49:50.186Z,27.19
2023-05-22T12:50:50.147Z,27.17
2023-05-22T12:51:50.110Z,27.16
2023-05-22T12:52:50.180Z,27.15